sensor_id;sensor_type;location;lat;lon;timestamp;P1;durP1;ratioP1;P2;durP2;ratioP2
32200;SDS011;18701;45.588;5.288;2024-02-14T00:00:07;19.17;;;8.60;;
32200;SDS011;18701;45.588;5.288;2024-02-14T00:02:37;20.70;;;7.63;;
32200;SDS011;18701;45.588;5.288;2024-02-14T00:05:03;13.30;;;7.00;;
32200;SDS011;18701;45.588;5.288;2024-02-14T00:07:29;21.05;;;8.30;;
32200;SDS011;18701;45.588;5.288;2024-02-14T00:09:55;14.52;;;8.00;;
32200;SDS011;18701;45.588;5.288;2024-02-14T00:12:20;16.95;;;7.93;;
32200;SDS011;18701;45.588;5.288;2024-02-14T00:14:46;15.60;;;7.38;;
32200;SDS011;18701;45.588;5.288;2024-02-14T00:17:11;16.98;;;8.32;;
32200;SDS011;18701;45.588;5.288;2024-02-14T00:19:37;19.40;;;8.65;;
32200;SDS011;18701;45.588;5.288;2024-02-14T00:22:03;17.67;;;8.00;;
32200;SDS011;18701;45.588;5.288;2024-02-14T00:24:28;16.80;;;8.38;;
32200;SDS011;18701;45.588;5.288;2024-02-14T00:26:54;14.82;;;7.65;;
32200;SDS011;18701;45.588;5.288;2024-02-14T00:29:21;18.48;;;8.98;;
32200;SDS011;18701;45.588;5.288;2024-02-14T00:31:48;16.35;;;8.23;;
32200;SDS011;18701;45.588;5.288;2024-02-14T00:34:13;12.38;;;7.20;;
32200;SDS011;18701;45.588;5.288;2024-02-14T00:36:39;14.30;;;7.40;;
32200;SDS011;18701;45.588;5.288;2024-02-14T00:39:04;16.67;;;7.95;;
32200;SDS011;18701;45.588;5.288;2024-02-14T00:41:33;15.82;;;8.70;;
32200;SDS011;18701;45.588;5.288;2024-02-14T00:44:00;16.23;;;8.52;;
32200;SDS011;18701;45.588;5.288;2024-02-14T00:46:26;16.38;;;8.20;;
32200;SDS011;18701;45.588;5.288;2024-02-14T00:48:52;18.05;;;8.38;;
32200;SDS011;18701;45.588;5.288;2024-02-14T00:51:19;18.15;;;7.82;;
32200;SDS011;18701;45.588;5.288;2024-02-14T00:53:46;19.60;;;9.45;;
32200;SDS011;18701;45.588;5.288;2024-02-14T00:56:11;19.73;;;8.48;;
32200;SDS011;18701;45.588;5.288;2024-02-14T00:58:37;16.02;;;8.13;;
32200;SDS011;18701;45.588;5.288;2024-02-14T01:01:02;15.73;;;7.18;;
32200;SDS011;18701;45.588;5.288;2024-02-14T01:03:28;17.75;;;8.10;;
32200;SDS011;18701;45.588;5.288;2024-02-14T01:05:54;17.15;;;7.72;;
32200;SDS011;18701;45.588;5.288;2024-02-14T01:08:20;15.95;;;7.70;;
32200;SDS011;18701;45.588;5.288;2024-02-14T01:10:46;14.82;;;6.78;;
32200;SDS011;18701;45.588;5.288;2024-02-14T01:13:11;14.30;;;7.10;;
32200;SDS011;18701;45.588;5.288;2024-02-14T01:15:37;17.52;;;7.50;;
32200;SDS011;18701;45.588;5.288;2024-02-14T01:18:03;18.70;;;6.65;;
32200;SDS011;18701;45.588;5.288;2024-02-14T01:20:29;13.10;;;6.57;;
32200;SDS011;18701;45.588;5.288;2024-02-14T01:22:54;13.45;;;6.63;;
32200;SDS011;18701;45.588;5.288;2024-02-14T01:25:20;15.77;;;7.60;;
32200;SDS011;18701;45.588;5.288;2024-02-14T01:27:46;11.43;;;6.68;;
32200;SDS011;18701;45.588;5.288;2024-02-14T01:30:14;13.98;;;7.47;;
32200;SDS011;18701;45.588;5.288;2024-02-14T01:32:39;16.58;;;7.72;;
32200;SDS011;18701;45.588;5.288;2024-02-14T01:35:05;14.25;;;7.32;;
32200;SDS011;18701;45.588;5.288;2024-02-14T01:37:31;12.85;;;7.00;;
32200;SDS011;18701;45.588;5.288;2024-02-14T01:39:57;14.95;;;7.38;;
32200;SDS011;18701;45.588;5.288;2024-02-14T01:42:23;15.43;;;7.47;;
32200;SDS011;18701;45.588;5.288;2024-02-14T01:44:48;13.35;;;6.70;;
32200;SDS011;18701;45.588;5.288;2024-02-14T01:47:14;15.95;;;7.13;;
32200;SDS011;18701;45.588;5.288;2024-02-14T01:49:40;15.35;;;6.68;;
32200;SDS011;18701;45.588;5.288;2024-02-14T01:52:09;13.45;;;6.90;;
32200;SDS011;18701;45.588;5.288;2024-02-14T01:54:35;13.20;;;6.55;;
32200;SDS011;18701;45.588;5.288;2024-02-14T01:57:01;18.88;;;6.55;;
32200;SDS011;18701;45.588;5.288;2024-02-14T01:59:28;12.40;;;6.47;;
32200;SDS011;18701;45.588;5.288;2024-02-14T02:01:54;15.05;;;7.00;;
32200;SDS011;18701;45.588;5.288;2024-02-14T02:04:20;14.55;;;6.43;;
32200;SDS011;18701;45.588;5.288;2024-02-14T02:06:46;14.20;;;6.45;;
32200;SDS011;18701;45.588;5.288;2024-02-14T02:09:12;12.73;;;5.43;;
32200;SDS011;18701;45.588;5.288;2024-02-14T02:11:50;13.48;;;6.47;;
32200;SDS011;18701;45.588;5.288;2024-02-14T02:14:18;10.45;;;6.03;;
32200;SDS011;18701;45.588;5.288;2024-02-14T02:16:45;13.10;;;6.25;;
32200;SDS011;18701;45.588;5.288;2024-02-14T02:19:11;9.70;;;5.57;;
32200;SDS011;18701;45.588;5.288;2024-02-14T02:21:37;13.00;;;5.85;;
32200;SDS011;18701;45.588;5.288;2024-02-14T02:24:03;9.48;;;4.72;;
32200;SDS011;18701;45.588;5.288;2024-02-14T02:26:29;13.75;;;6.47;;
32200;SDS011;18701;45.588;5.288;2024-02-14T02:28:54;12.38;;;6.50;;
32200;SDS011;18701;45.588;5.288;2024-02-14T02:31:20;15.30;;;5.90;;
32200;SDS011;18701;45.588;5.288;2024-02-14T02:33:46;13.35;;;6.40;;
32200;SDS011;18701;45.588;5.288;2024-02-14T02:36:12;12.85;;;5.93;;
32200;SDS011;18701;45.588;5.288;2024-02-14T02:38:37;11.07;;;5.95;;
32200;SDS011;18701;45.588;5.288;2024-02-14T02:41:04;13.32;;;6.05;;
32200;SDS011;18701;45.588;5.288;2024-02-14T02:43:32;14.98;;;5.70;;
32200;SDS011;18701;45.588;5.288;2024-02-14T02:45:58;12.20;;;5.65;;
32200;SDS011;18701;45.588;5.288;2024-02-14T02:48:24;16.23;;;6.13;;
32200;SDS011;18701;45.588;5.288;2024-02-14T02:50:50;12.80;;;5.65;;
32200;SDS011;18701;45.588;5.288;2024-02-14T02:53:16;15.20;;;5.50;;
32200;SDS011;18701;45.588;5.288;2024-02-14T02:55:42;12.82;;;5.60;;
32200;SDS011;18701;45.588;5.288;2024-02-14T02:58:08;10.77;;;5.13;;
32200;SDS011;18701;45.588;5.288;2024-02-14T03:00:34;6.50;;;4.00;;
32200;SDS011;18701;45.588;5.288;2024-02-14T03:02:59;9.57;;;5.13;;
32200;SDS011;18701;45.588;5.288;2024-02-14T03:05:25;11.32;;;4.68;;
32200;SDS011;18701;45.588;5.288;2024-02-14T03:07:52;12.60;;;4.90;;
32200;SDS011;18701;45.588;5.288;2024-02-14T03:10:18;12.10;;;4.95;;
32200;SDS011;18701;45.588;5.288;2024-02-14T03:12:47;10.93;;;4.72;;
32200;SDS011;18701;45.588;5.288;2024-02-14T03:15:13;13.32;;;4.75;;
32200;SDS011;18701;45.588;5.288;2024-02-14T03:17:39;9.38;;;4.97;;
32200;SDS011;18701;45.588;5.288;2024-02-14T03:20:05;11.02;;;4.78;;
32200;SDS011;18701;45.588;5.288;2024-02-14T03:22:40;12.05;;;5.80;;
32200;SDS011;18701;45.588;5.288;2024-02-14T03:25:18;9.50;;;4.93;;
32200;SDS011;18701;45.588;5.288;2024-02-14T03:27:45;11.70;;;5.07;;
32200;SDS011;18701;45.588;5.288;2024-02-14T03:30:17;9.90;;;4.80;;
32200;SDS011;18701;45.588;5.288;2024-02-14T03:32:44;7.75;;;4.65;;
32200;SDS011;18701;45.588;5.288;2024-02-14T03:35:10;9.93;;;4.53;;
32200;SDS011;18701;45.588;5.288;2024-02-14T03:37:38;15.18;;;4.53;;
32200;SDS011;18701;45.588;5.288;2024-02-14T03:40:04;8.38;;;4.10;;
32200;SDS011;18701;45.588;5.288;2024-02-14T03:42:31;10.30;;;4.07;;
32200;SDS011;18701;45.588;5.288;2024-02-14T03:44:59;8.60;;;4.00;;
32200;SDS011;18701;45.588;5.288;2024-02-14T03:47:30;12.18;;;5.47;;
32200;SDS011;18701;45.588;5.288;2024-02-14T03:49:59;8.25;;;4.05;;
32200;SDS011;18701;45.588;5.288;2024-02-14T03:52:27;10.48;;;4.13;;
32200;SDS011;18701;45.588;5.288;2024-02-14T03:54:52;15.05;;;5.50;;
32200;SDS011;18701;45.588;5.288;2024-02-14T03:57:18;17.00;;;6.25;;
32200;SDS011;18701;45.588;5.288;2024-02-14T03:59:44;13.23;;;5.57;;
32200;SDS011;18701;45.588;5.288;2024-02-14T04:02:10;12.27;;;6.20;;
32200;SDS011;18701;45.588;5.288;2024-02-14T04:04:36;14.35;;;6.57;;
32200;SDS011;18701;45.588;5.288;2024-02-14T04:07:03;13.27;;;6.18;;
32200;SDS011;18701;45.588;5.288;2024-02-14T04:09:29;16.00;;;6.35;;
32200;SDS011;18701;45.588;5.288;2024-02-14T04:11:54;11.18;;;6.07;;
32200;SDS011;18701;45.588;5.288;2024-02-14T04:14:20;15.80;;;5.70;;
32200;SDS011;18701;45.588;5.288;2024-02-14T04:16:46;12.32;;;6.13;;
32200;SDS011;18701;45.588;5.288;2024-02-14T04:19:11;13.50;;;5.95;;
32200;SDS011;18701;45.588;5.288;2024-02-14T04:21:38;16.13;;;5.63;;
32200;SDS011;18701;45.588;5.288;2024-02-14T04:24:04;12.77;;;5.60;;
32200;SDS011;18701;45.588;5.288;2024-02-14T04:26:29;12.77;;;6.57;;
32200;SDS011;18701;45.588;5.288;2024-02-14T04:28:55;13.57;;;6.43;;
32200;SDS011;18701;45.588;5.288;2024-02-14T04:31:21;14.05;;;6.32;;
32200;SDS011;18701;45.588;5.288;2024-02-14T04:33:46;11.75;;;6.47;;
32200;SDS011;18701;45.588;5.288;2024-02-14T04:36:19;14.73;;;6.28;;
32200;SDS011;18701;45.588;5.288;2024-02-14T04:38:46;11.30;;;5.70;;
32200;SDS011;18701;45.588;5.288;2024-02-14T04:41:13;14.25;;;4.97;;
32200;SDS011;18701;45.588;5.288;2024-02-14T04:43:39;12.55;;;5.05;;
32200;SDS011;18701;45.588;5.288;2024-02-14T04:46:05;10.65;;;5.00;;
32200;SDS011;18701;45.588;5.288;2024-02-14T04:48:35;10.75;;;4.70;;
32200;SDS011;18701;45.588;5.288;2024-02-14T04:51:01;8.57;;;3.53;;
32200;SDS011;18701;45.588;5.288;2024-02-14T04:53:28;8.90;;;3.53;;
32200;SDS011;18701;45.588;5.288;2024-02-14T04:55:53;9.00;;;3.53;;
32200;SDS011;18701;45.588;5.288;2024-02-14T04:58:19;7.35;;;2.42;;
32200;SDS011;18701;45.588;5.288;2024-02-14T05:00:45;9.80;;;3.60;;
32200;SDS011;18701;45.588;5.288;2024-02-14T05:03:11;6.13;;;3.35;;
32200;SDS011;18701;45.588;5.288;2024-02-14T05:05:37;6.60;;;2.40;;
32200;SDS011;18701;45.588;5.288;2024-02-14T05:08:03;6.88;;;3.20;;
32200;SDS011;18701;45.588;5.288;2024-02-14T05:10:31;4.22;;;2.42;;
32200;SDS011;18701;45.588;5.288;2024-02-14T05:12:57;8.88;;;3.00;;
32200;SDS011;18701;45.588;5.288;2024-02-14T05:15:23;10.77;;;3.13;;
32200;SDS011;18701;45.588;5.288;2024-02-14T05:17:48;7.95;;;3.47;;
32200;SDS011;18701;45.588;5.288;2024-02-14T05:20:15;7.40;;;3.47;;
32200;SDS011;18701;45.588;5.288;2024-02-14T05:22:41;9.40;;;3.47;;
32200;SDS011;18701;45.588;5.288;2024-02-14T05:25:06;6.13;;;2.83;;
32200;SDS011;18701;45.588;5.288;2024-02-14T05:27:34;10.15;;;3.50;;
32200;SDS011;18701;45.588;5.288;2024-02-14T05:30:00;16.52;;;4.00;;
32200;SDS011;18701;45.588;5.288;2024-02-14T05:32:26;8.60;;;3.17;;
32200;SDS011;18701;45.588;5.288;2024-02-14T05:34:52;10.93;;;3.10;;
32200;SDS011;18701;45.588;5.288;2024-02-14T05:37:17;7.90;;;3.40;;
32200;SDS011;18701;45.588;5.288;2024-02-14T05:39:43;10.73;;;2.97;;
32200;SDS011;18701;45.588;5.288;2024-02-14T05:42:08;8.93;;;3.35;;
32200;SDS011;18701;45.588;5.288;2024-02-14T05:44:34;6.07;;;3.13;;
32200;SDS011;18701;45.588;5.288;2024-02-14T05:47:00;6.72;;;3.17;;
32200;SDS011;18701;45.588;5.288;2024-02-14T05:49:25;9.55;;;3.40;;
32200;SDS011;18701;45.588;5.288;2024-02-14T05:51:51;8.00;;;3.15;;
32200;SDS011;18701;45.588;5.288;2024-02-14T05:54:18;6.72;;;4.00;;
32200;SDS011;18701;45.588;5.288;2024-02-14T05:56:44;6.95;;;3.28;;
32200;SDS011;18701;45.588;5.288;2024-02-14T05:59:10;5.45;;;2.67;;
32200;SDS011;18701;45.588;5.288;2024-02-14T06:01:36;9.85;;;3.20;;
32200;SDS011;18701;45.588;5.288;2024-02-14T06:04:03;7.00;;;2.63;;
32200;SDS011;18701;45.588;5.288;2024-02-14T06:06:29;10.07;;;2.97;;
32200;SDS011;18701;45.588;5.288;2024-02-14T06:08:54;5.75;;;2.25;;
32200;SDS011;18701;45.588;5.288;2024-02-14T06:11:22;8.50;;;3.22;;
32200;SDS011;18701;45.588;5.288;2024-02-14T06:13:48;10.80;;;3.03;;
32200;SDS011;18701;45.588;5.288;2024-02-14T06:16:13;9.68;;;3.17;;
32200;SDS011;18701;45.588;5.288;2024-02-14T06:18:39;7.95;;;3.53;;
32200;SDS011;18701;45.588;5.288;2024-02-14T06:21:05;5.32;;;3.38;;
32200;SDS011;18701;45.588;5.288;2024-02-14T06:23:31;6.93;;;2.90;;
32200;SDS011;18701;45.588;5.288;2024-02-14T06:25:57;6.60;;;3.17;;
32200;SDS011;18701;45.588;5.288;2024-02-14T06:28:23;8.15;;;3.30;;
32200;SDS011;18701;45.588;5.288;2024-02-14T06:30:49;6.90;;;2.70;;
32200;SDS011;18701;45.588;5.288;2024-02-14T06:33:14;9.20;;;2.30;;
32200;SDS011;18701;45.588;5.288;2024-02-14T06:35:40;5.20;;;2.47;;
32200;SDS011;18701;45.588;5.288;2024-02-14T06:38:06;7.45;;;2.65;;
32200;SDS011;18701;45.588;5.288;2024-02-14T06:40:32;9.05;;;2.95;;
32200;SDS011;18701;45.588;5.288;2024-02-14T06:42:58;5.05;;;2.85;;
32200;SDS011;18701;45.588;5.288;2024-02-14T06:45:25;6.03;;;2.45;;
32200;SDS011;18701;45.588;5.288;2024-02-14T06:47:51;8.65;;;2.72;;
32200;SDS011;18701;45.588;5.288;2024-02-14T06:50:16;10.55;;;2.38;;
32200;SDS011;18701;45.588;5.288;2024-02-14T06:52:42;8.25;;;3.22;;
32200;SDS011;18701;45.588;5.288;2024-02-14T06:55:07;12.43;;;4.20;;
32200;SDS011;18701;45.588;5.288;2024-02-14T06:57:33;8.98;;;2.78;;
32200;SDS011;18701;45.588;5.288;2024-02-14T06:59:59;7.05;;;3.20;;
32200;SDS011;18701;45.588;5.288;2024-02-14T07:02:24;6.43;;;3.03;;
32200;SDS011;18701;45.588;5.288;2024-02-14T07:04:53;6.30;;;3.10;;
32200;SDS011;18701;45.588;5.288;2024-02-14T07:07:19;10.48;;;3.00;;
32200;SDS011;18701;45.588;5.288;2024-02-14T07:09:45;9.23;;;3.65;;
32200;SDS011;18701;45.588;5.288;2024-02-14T07:12:10;13.43;;;3.40;;
32200;SDS011;18701;45.588;5.288;2024-02-14T07:14:36;12.98;;;3.80;;
32200;SDS011;18701;45.588;5.288;2024-02-14T07:17:02;13.73;;;4.40;;
32200;SDS011;18701;45.588;5.288;2024-02-14T07:19:28;11.82;;;5.07;;
32200;SDS011;18701;45.588;5.288;2024-02-14T07:21:53;7.00;;;3.97;;
32200;SDS011;18701;45.588;5.288;2024-02-14T07:24:19;12.60;;;4.40;;
32200;SDS011;18701;45.588;5.288;2024-02-14T07:26:45;11.73;;;4.28;;
32200;SDS011;18701;45.588;5.288;2024-02-14T07:29:11;11.52;;;3.70;;
32200;SDS011;18701;45.588;5.288;2024-02-14T07:31:36;13.68;;;3.33;;
32200;SDS011;18701;45.588;5.288;2024-02-14T07:34:02;10.85;;;3.55;;
32200;SDS011;18701;45.588;5.288;2024-02-14T07:36:31;5.00;;;2.42;;
32200;SDS011;18701;45.588;5.288;2024-02-14T07:38:57;7.45;;;2.85;;
32200;SDS011;18701;45.588;5.288;2024-02-14T07:41:23;5.70;;;3.38;;
32200;SDS011;18701;45.588;5.288;2024-02-14T07:43:48;8.90;;;3.58;;
32200;SDS011;18701;45.588;5.288;2024-02-14T07:46:20;14.77;;;4.40;;
32200;SDS011;18701;45.588;5.288;2024-02-14T07:48:47;10.07;;;4.70;;
32200;SDS011;18701;45.588;5.288;2024-02-14T07:51:13;11.57;;;5.18;;
32200;SDS011;18701;45.588;5.288;2024-02-14T07:53:39;8.65;;;4.25;;
32200;SDS011;18701;45.588;5.288;2024-02-14T07:56:05;14.07;;;5.13;;
32200;SDS011;18701;45.588;5.288;2024-02-14T07:58:31;11.40;;;4.50;;
32200;SDS011;18701;45.588;5.288;2024-02-14T08:00:56;9.27;;;4.43;;
32200;SDS011;18701;45.588;5.288;2024-02-14T08:03:22;11.10;;;3.42;;
32200;SDS011;18701;45.588;5.288;2024-02-14T08:05:48;8.85;;;2.92;;
32200;SDS011;18701;45.588;5.288;2024-02-14T08:08:13;8.23;;;3.42;;
32200;SDS011;18701;45.588;5.288;2024-02-14T08:10:39;7.63;;;2.75;;
32200;SDS011;18701;45.588;5.288;2024-02-14T08:13:04;11.52;;;2.83;;
32200;SDS011;18701;45.588;5.288;2024-02-14T08:15:30;9.10;;;2.42;;
32200;SDS011;18701;45.588;5.288;2024-02-14T08:17:56;9.57;;;2.58;;
32200;SDS011;18701;45.588;5.288;2024-02-14T08:20:22;8.63;;;3.90;;
32200;SDS011;18701;45.588;5.288;2024-02-14T08:22:48;15.15;;;3.50;;
32200;SDS011;18701;45.588;5.288;2024-02-14T08:25:14;11.15;;;3.47;;
32200;SDS011;18701;45.588;5.288;2024-02-14T08:27:40;11.73;;;3.22;;
32200;SDS011;18701;45.588;5.288;2024-02-14T08:30:06;8.73;;;3.47;;
32200;SDS011;18701;45.588;5.288;2024-02-14T08:32:33;9.40;;;3.53;;
32200;SDS011;18701;45.588;5.288;2024-02-14T08:34:59;9.15;;;3.42;;
32200;SDS011;18701;45.588;5.288;2024-02-14T08:37:26;8.35;;;3.33;;
32200;SDS011;18701;45.588;5.288;2024-02-14T08:39:52;7.35;;;3.33;;
32200;SDS011;18701;45.588;5.288;2024-02-14T08:42:18;9.73;;;3.63;;
32200;SDS011;18701;45.588;5.288;2024-02-14T08:44:43;5.32;;;2.90;;
32200;SDS011;18701;45.588;5.288;2024-02-14T08:47:09;10.07;;;3.40;;
32200;SDS011;18701;45.588;5.288;2024-02-14T08:49:35;10.50;;;3.17;;
32200;SDS011;18701;45.588;5.288;2024-02-14T08:52:01;8.43;;;3.67;;
32200;SDS011;18701;45.588;5.288;2024-02-14T08:54:26;14.02;;;4.13;;
32200;SDS011;18701;45.588;5.288;2024-02-14T08:56:53;11.57;;;3.15;;
32200;SDS011;18701;45.588;5.288;2024-02-14T08:59:21;12.18;;;3.80;;
32200;SDS011;18701;45.588;5.288;2024-02-14T09:01:46;11.45;;;4.30;;
32200;SDS011;18701;45.588;5.288;2024-02-14T09:04:13;16.55;;;3.92;;
32200;SDS011;18701;45.588;5.288;2024-02-14T09:06:39;12.63;;;4.55;;
32200;SDS011;18701;45.588;5.288;2024-02-14T09:09:05;12.63;;;4.22;;
32200;SDS011;18701;45.588;5.288;2024-02-14T09:11:34;12.63;;;3.47;;
32200;SDS011;18701;45.588;5.288;2024-02-14T09:14:00;11.77;;;4.15;;
32200;SDS011;18701;45.588;5.288;2024-02-14T09:16:31;19.63;;;4.38;;
32200;SDS011;18701;45.588;5.288;2024-02-14T09:18:58;7.55;;;3.90;;
32200;SDS011;18701;45.588;5.288;2024-02-14T09:21:24;13.75;;;4.70;;
32200;SDS011;18701;45.588;5.288;2024-02-14T09:23:50;13.77;;;5.35;;
32200;SDS011;18701;45.588;5.288;2024-02-14T09:26:16;12.40;;;5.13;;
32200;SDS011;18701;45.588;5.288;2024-02-14T09:28:42;10.77;;;4.82;;
32200;SDS011;18701;45.588;5.288;2024-02-14T09:31:08;11.52;;;5.95;;
32200;SDS011;18701;45.588;5.288;2024-02-14T09:33:37;17.83;;;4.85;;
32200;SDS011;18701;45.588;5.288;2024-02-14T09:36:04;11.30;;;5.10;;
32200;SDS011;18701;45.588;5.288;2024-02-14T09:38:30;17.27;;;5.00;;
32200;SDS011;18701;45.588;5.288;2024-02-14T09:41:01;11.10;;;4.97;;
32200;SDS011;18701;45.588;5.288;2024-02-14T09:43:39;11.65;;;4.70;;
32200;SDS011;18701;45.588;5.288;2024-02-14T09:46:09;17.05;;;5.55;;
32200;SDS011;18701;45.588;5.288;2024-02-14T09:48:37;10.05;;;5.47;;
32200;SDS011;18701;45.588;5.288;2024-02-14T09:51:04;12.73;;;5.43;;
32200;SDS011;18701;45.588;5.288;2024-02-14T09:53:32;15.30;;;4.30;;
32200;SDS011;18701;45.588;5.288;2024-02-14T09:55:58;7.68;;;4.85;;
32200;SDS011;18701;45.588;5.288;2024-02-14T09:58:26;14.85;;;4.53;;
32200;SDS011;18701;45.588;5.288;2024-02-14T10:00:53;9.65;;;4.50;;
32200;SDS011;18701;45.588;5.288;2024-02-14T10:03:18;9.50;;;3.55;;
32200;SDS011;18701;45.588;5.288;2024-02-14T10:05:44;8.10;;;3.25;;
32200;SDS011;18701;45.588;5.288;2024-02-14T10:08:10;9.15;;;4.45;;
32200;SDS011;18701;45.588;5.288;2024-02-14T10:10:37;11.57;;;3.63;;
32200;SDS011;18701;45.588;5.288;2024-02-14T10:13:06;13.27;;;3.60;;
32200;SDS011;18701;45.588;5.288;2024-02-14T10:15:32;11.95;;;3.30;;
32200;SDS011;18701;45.588;5.288;2024-02-14T10:17:58;8.43;;;3.15;;
32200;SDS011;18701;45.588;5.288;2024-02-14T10:20:25;14.40;;;3.30;;
32200;SDS011;18701;45.588;5.288;2024-02-14T10:23:02;9.48;;;4.40;;
32200;SDS011;18701;45.588;5.288;2024-02-14T10:25:29;12.35;;;3.20;;
32200;SDS011;18701;45.588;5.288;2024-02-14T10:27:56;9.05;;;3.42;;
32200;SDS011;18701;45.588;5.288;2024-02-14T10:30:22;7.25;;;2.88;;
32200;SDS011;18701;45.588;5.288;2024-02-14T10:32:48;13.15;;;3.30;;
32200;SDS011;18701;45.588;5.288;2024-02-14T10:35:14;9.45;;;3.42;;
32200;SDS011;18701;45.588;5.288;2024-02-14T10:37:41;9.57;;;3.13;;
32200;SDS011;18701;45.588;5.288;2024-02-14T10:40:07;6.28;;;2.90;;
32200;SDS011;18701;45.588;5.288;2024-02-14T10:42:36;9.82;;;2.55;;
32200;SDS011;18701;45.588;5.288;2024-02-14T10:45:02;9.73;;;3.08;;
32200;SDS011;18701;45.588;5.288;2024-02-14T10:47:32;9.75;;;2.40;;
32200;SDS011;18701;45.588;5.288;2024-02-14T10:50:03;7.25;;;2.30;;
32200;SDS011;18701;45.588;5.288;2024-02-14T10:52:31;7.53;;;2.90;;
32200;SDS011;18701;45.588;5.288;2024-02-14T10:54:58;7.85;;;2.47;;
32200;SDS011;18701;45.588;5.288;2024-02-14T10:57:26;5.90;;;2.78;;
32200;SDS011;18701;45.588;5.288;2024-02-14T10:59:54;5.93;;;2.28;;
32200;SDS011;18701;45.588;5.288;2024-02-14T11:02:21;4.93;;;2.40;;
32200;SDS011;18701;45.588;5.288;2024-02-14T11:04:48;6.22;;;2.38;;
32200;SDS011;18701;45.588;5.288;2024-02-14T11:07:18;8.65;;;2.90;;
32200;SDS011;18701;45.588;5.288;2024-02-14T11:09:45;6.88;;;2.30;;
32200;SDS011;18701;45.588;5.288;2024-02-14T11:12:11;11.20;;;2.42;;
32200;SDS011;18701;45.588;5.288;2024-02-14T11:14:37;9.65;;;2.95;;
32200;SDS011;18701;45.588;5.288;2024-02-14T11:17:09;5.38;;;2.17;;
32200;SDS011;18701;45.588;5.288;2024-02-14T11:19:35;3.80;;;1.98;;
32200;SDS011;18701;45.588;5.288;2024-02-14T11:25:05;5.25;;;2.08;;
32200;SDS011;18701;45.588;5.288;2024-02-14T11:27:32;5.28;;;1.63;;
32200;SDS011;18701;45.588;5.288;2024-02-14T11:29:58;7.30;;;2.10;;
32200;SDS011;18701;45.588;5.288;2024-02-14T11:32:26;7.55;;;2.28;;
32200;SDS011;18701;45.588;5.288;2024-02-14T11:34:56;4.90;;;1.73;;
32200;SDS011;18701;45.588;5.288;2024-02-14T11:37:28;4.43;;;1.77;;
32200;SDS011;18701;45.588;5.288;2024-02-14T11:39:55;4.57;;;1.67;;
32200;SDS011;18701;45.588;5.288;2024-02-14T11:42:22;6.00;;;2.10;;
32200;SDS011;18701;45.588;5.288;2024-02-14T11:44:48;5.82;;;1.98;;
32200;SDS011;18701;45.588;5.288;2024-02-14T11:47:14;9.30;;;1.77;;
32200;SDS011;18701;45.588;5.288;2024-02-14T11:49:40;5.50;;;2.00;;
32200;SDS011;18701;45.588;5.288;2024-02-14T11:52:09;5.20;;;1.88;;
32200;SDS011;18701;45.588;5.288;2024-02-14T11:54:36;5.53;;;1.60;;
32200;SDS011;18701;45.588;5.288;2024-02-14T11:57:03;3.50;;;1.42;;
32200;SDS011;18701;45.588;5.288;2024-02-14T11:59:28;3.53;;;1.77;;
32200;SDS011;18701;45.588;5.288;2024-02-14T12:01:54;7.40;;;1.67;;
32200;SDS011;18701;45.588;5.288;2024-02-14T12:04:23;7.40;;;1.60;;
32200;SDS011;18701;45.588;5.288;2024-02-14T12:06:49;7.35;;;2.10;;
32200;SDS011;18701;45.588;5.288;2024-02-14T12:09:15;4.00;;;2.03;;
32200;SDS011;18701;45.588;5.288;2024-02-14T12:11:40;6.85;;;2.45;;
32200;SDS011;18701;45.588;5.288;2024-02-14T12:14:11;4.97;;;1.75;;
32200;SDS011;18701;45.588;5.288;2024-02-14T12:16:37;5.00;;;1.80;;
32200;SDS011;18701;45.588;5.288;2024-02-14T12:19:08;4.57;;;1.85;;
32200;SDS011;18701;45.588;5.288;2024-02-14T12:21:39;3.35;;;1.65;;
32200;SDS011;18701;45.588;5.288;2024-02-14T12:24:08;7.80;;;1.70;;
32200;SDS011;18701;45.588;5.288;2024-02-14T12:26:35;5.75;;;1.40;;
32200;SDS011;18701;45.588;5.288;2024-02-14T12:29:02;5.40;;;1.60;;
32200;SDS011;18701;45.588;5.288;2024-02-14T12:31:29;3.50;;;1.20;;
32200;SDS011;18701;45.588;5.288;2024-02-14T12:33:56;2.78;;;1.00;;
32200;SDS011;18701;45.588;5.288;2024-02-14T12:36:24;1.63;;;0.93;;
32200;SDS011;18701;45.588;5.288;2024-02-14T12:38:50;4.07;;;0.98;;
32200;SDS011;18701;45.588;5.288;2024-02-14T12:41:18;4.25;;;1.02;;
32200;SDS011;18701;45.588;5.288;2024-02-14T12:43:44;3.70;;;1.42;;
32200;SDS011;18701;45.588;5.288;2024-02-14T12:46:09;7.13;;;1.60;;
32200;SDS011;18701;45.588;5.288;2024-02-14T12:48:35;3.60;;;1.75;;
32200;SDS011;18701;45.588;5.288;2024-02-14T12:51:00;2.75;;;0.95;;
32200;SDS011;18701;45.588;5.288;2024-02-14T12:53:26;4.40;;;1.00;;
32200;SDS011;18701;45.588;5.288;2024-02-14T12:55:52;4.18;;;1.02;;
32200;SDS011;18701;45.588;5.288;2024-02-14T12:58:18;2.60;;;0.90;;
32200;SDS011;18701;45.588;5.288;2024-02-14T13:00:44;4.13;;;1.02;;
32200;SDS011;18701;45.588;5.288;2024-02-14T13:03:10;3.63;;;0.80;;
32200;SDS011;18701;45.588;5.288;2024-02-14T13:05:36;3.55;;;1.20;;
32200;SDS011;18701;45.588;5.288;2024-02-14T13:08:02;7.28;;;1.58;;
32200;SDS011;18701;45.588;5.288;2024-02-14T13:10:28;3.83;;;1.15;;
32200;SDS011;18701;45.588;5.288;2024-02-14T13:12:56;4.88;;;0.80;;
32200;SDS011;18701;45.588;5.288;2024-02-14T13:15:22;3.53;;;0.88;;
32200;SDS011;18701;45.588;5.288;2024-02-14T13:17:47;4.95;;;1.15;;
32200;SDS011;18701;45.588;5.288;2024-02-14T13:20:13;7.95;;;1.10;;
32200;SDS011;18701;45.588;5.288;2024-02-14T13:22:40;4.30;;;1.05;;
32200;SDS011;18701;45.588;5.288;2024-02-14T13:25:07;3.40;;;1.48;;
32200;SDS011;18701;45.588;5.288;2024-02-14T13:27:34;3.58;;;1.02;;
32200;SDS011;18701;45.588;5.288;2024-02-14T13:30:00;3.90;;;1.27;;
32200;SDS011;18701;45.588;5.288;2024-02-14T13:32:26;4.63;;;1.15;;
32200;SDS011;18701;45.588;5.288;2024-02-14T13:34:52;2.28;;;0.85;;
32200;SDS011;18701;45.588;5.288;2024-02-14T13:37:18;4.45;;;0.60;;
32200;SDS011;18701;45.588;5.288;2024-02-14T13:39:44;7.75;;;0.65;;
32200;SDS011;18701;45.588;5.288;2024-02-14T13:42:10;1.90;;;0.85;;
32200;SDS011;18701;45.588;5.288;2024-02-14T13:44:36;3.92;;;0.80;;
32200;SDS011;18701;45.588;5.288;2024-02-14T13:47:01;4.63;;;0.98;;
32200;SDS011;18701;45.588;5.288;2024-02-14T13:49:28;5.60;;;0.80;;
32200;SDS011;18701;45.588;5.288;2024-02-14T13:51:53;5.68;;;1.13;;
32200;SDS011;18701;45.588;5.288;2024-02-14T13:54:19;9.98;;;0.93;;
32200;SDS011;18701;45.588;5.288;2024-02-14T13:56:45;3.33;;;1.05;;
32200;SDS011;18701;45.588;5.288;2024-02-14T13:59:13;4.13;;;1.45;;
32200;SDS011;18701;45.588;5.288;2024-02-14T14:01:39;3.80;;;1.42;;
32200;SDS011;18701;45.588;5.288;2024-02-14T14:04:05;5.30;;;1.20;;
32200;SDS011;18701;45.588;5.288;2024-02-14T14:06:31;9.15;;;2.03;;
32200;SDS011;18701;45.588;5.288;2024-02-14T14:08:57;5.13;;;1.40;;
32200;SDS011;18701;45.588;5.288;2024-02-14T14:11:24;6.40;;;1.77;;
32200;SDS011;18701;45.588;5.288;2024-02-14T14:13:49;5.28;;;1.95;;
32200;SDS011;18701;45.588;5.288;2024-02-14T14:16:15;6.95;;;1.92;;
32200;SDS011;18701;45.588;5.288;2024-02-14T14:18:42;6.03;;;2.03;;
32200;SDS011;18701;45.588;5.288;2024-02-14T14:21:08;3.38;;;1.65;;
32200;SDS011;18701;45.588;5.288;2024-02-14T14:23:33;5.00;;;1.63;;
32200;SDS011;18701;45.588;5.288;2024-02-14T14:25:59;5.05;;;2.15;;
32200;SDS011;18701;45.588;5.288;2024-02-14T14:28:26;10.98;;;2.05;;
32200;SDS011;18701;45.588;5.288;2024-02-14T14:30:52;8.63;;;1.40;;
32200;SDS011;18701;45.588;5.288;2024-02-14T14:33:21;4.45;;;1.60;;
32200;SDS011;18701;45.588;5.288;2024-02-14T14:35:47;1.55;;;0.85;;
32200;SDS011;18701;45.588;5.288;2024-02-14T14:38:18;1.58;;;0.85;;